Time;durP1;ratioP1;P1;durP2;ratioP2;P2;SDS_P1;SDS_P2;PMS_P1;PMS_P2;Temp;Humidity;BMP_temperature;BMP_pressure;BME280_temperature;BME280_humidity;BME280_pressure;Samples;Min_cycle;Max_cycle;Signal;HPM_P1;HPM_P2
2022/06/17 00:01:25;;;;;;;6.28;3.20;;;18.30;90.30;;;;;;4973325;28;20173;-86
2022/06/17 00:03:54;;;;;;;6.20;3.15;;;18.30;90.30;;;;;;4973445;28;20030;-87
2022/06/17 00:06:22;;;;;;;6.30;3.28;;;18.20;90.40;;;;;;4971846;28;20062;-87
2022/06/17 00:08:50;;;;;;;4.75;2.75;;;18.20;90.40;;;;;;4971683;28;20331;-87
2022/06/17 00:11:22;;;;;;;5.97;3.05;;;18.20;90.40;;;;;;4955600;28;20078;-87
2022/06/17 00:13:50;;;;;;;5.45;3.15;;;18.20;90.40;;;;;;4972139;28;20045;-87
2022/06/17 00:16:19;;;;;;;5.85;3.42;;;18.20;90.50;;;;;;4972934;28;20120;-87
2022/06/17 00:18:45;;;;;;;6.03;3.25;;;18.20;90.50;;;;;;4955307;28;20035;-87
2022/06/17 00:21:34;;;;;;;5.38;3.30;;;18.10;90.50;;;;;;4971596;28;20134;-86
2022/06/17 00:24:01;;;;;;;4.95;3.08;;;18.10;90.60;;;;;;4971796;28;20186;-87
2022/06/17 00:26:27;;;;;;;5.57;3.22;;;18.10;90.60;;;;;;4972716;28;20038;-87
2022/06/17 00:28:53;;;;;;;5.07;3.25;;;18.10;90.60;;;;;;4971400;28;20039;-87
2022/06/17 00:31:19;;;;;;;6.07;3.30;;;18.10;90.70;;;;;;4955383;28;20184;-87
2022/06/17 00:33:45;;;;;;;5.18;3.30;;;18.10;90.80;;;;;;4971456;28;20026;-87
2022/06/17 00:36:17;;;;;;;7.70;3.33;;;18.10;90.80;;;;;;4954340;28;20118;-87
2022/06/17 00:38:46;;;;;;;8.30;3.35;;;18.00;90.90;;;;;;4971317;28;20395;-87
2022/06/17 00:41:24;;;;;;;8.77;3.60;;;18.00;90.90;;;;;;4971127;28;20045;-87
2022/06/17 00:43:53;;;;;;;6.85;3.58;;;18.00;91.00;;;;;;4955728;28;20117;-87
2022/06/17 00:46:42;;;;;;;8.25;3.53;;;18.00;91.00;;;;;;4972395;28;20033;-87
2022/06/17 00:49:20;;;;;;;4.97;3.20;;;18.00;90.90;;;;;;4971120;28;20089;-87
2022/06/17 00:54:40;;;;;;;5.55;3.47;;;17.90;91.10;;;;;;4965336;28;20121;-84
2022/06/17 00:57:35;;;;;;;7.30;3.67;;;17.90;91.10;;;;;;4946334;29;20035;-84
2022/06/17 01:00:04;;;;;;;5.32;3.30;;;17.90;91.10;;;;;;4951554;29;20038;-84
2022/06/17 01:02:38;;;;;;;6.03;3.33;;;17.90;91.20;;;;;;4951521;28;20028;-84
2022/06/17 01:05:05;;;;;;;5.30;3.30;;;17.90;91.20;;;;;;4951747;29;20173;-84
2022/06/17 01:07:40;;;;;;;5.63;3.47;;;17.90;91.20;;;;;;4951319;29;20035;-84
2022/06/17 01:10:11;;;;;;;6.75;3.08;;;17.90;91.20;;;;;;4951378;29;20027;-84
2022/06/17 01:13:05;;;;;;;6.65;3.50;;;17.90;91.10;;;;;;4967585;28;20222;-84
2022/06/17 01:15:35;;;;;;;6.78;3.53;;;17.90;91.10;;;;;;4951634;29;20447;-84
2022/06/17 01:18:02;;;;;;;7.95;3.42;;;17.90;91.10;;;;;;4951507;29;20496;-84
2022/06/17 01:20:29;;;;;;;5.40;2.78;;;17.90;91.10;;;;;;4951368;29;20562;-84
2022/06/17 01:23:04;;;;;;;4.47;2.92;;;17.90;91.30;;;;;;4953084;28;20376;-84
2022/06/17 01:25:41;;;;;;;6.38;3.17;;;18.00;90.80;;;;;;4951284;29;20034;-84
2022/06/17 01:28:14;;;;;;;5.28;2.85;;;18.00;90.50;;;;;;4967796;28;20035;-84
2022/06/17 01:30:50;;;;;;;5.53;2.90;;;18.00;90.30;;;;;;4952555;29;20027;-84
2022/06/17 01:33:23;;;;;;;4.53;2.83;;;18.10;90.40;;;;;;4951336;29;20045;-84
2022/06/17 01:36:12;;;;;;;5.78;2.53;;;18.10;90.30;;;;;;4967110;28;20089;-84
2022/06/17 01:38:41;;;;;;;4.75;2.60;;;18.10;90.20;;;;;;4951204;29;20286;-84
2022/06/17 01:41:10;;;;;;;4.90;2.70;;;18.10;90.20;;;;;;4951362;29;20035;-84
2022/06/17 01:44:08;;;;;;;4.25;2.75;;;18.00;90.10;;;;;;4951128;28;20039;-84
2022/06/17 01:46:43;;;;;;;4.47;2.80;;;18.00;90.10;;;;;;4939523;28;20036;-84
2022/06/17 01:49:21;;;;;;;5.85;2.80;;;18.00;90.10;;;;;;4954969;29;20119;-84
2022/06/17 01:51:56;;;;;;;5.20;2.70;;;18.00;90.10;;;;;;4970997;28;20023;-84
2022/06/17 01:54:29;;;;;;;3.80;2.40;;;18.00;90.10;;;;;;4971221;28;20059;-84
2022/06/17 01:56:59;;;;;;;4.88;2.70;;;17.90;90.20;;;;;;4970976;28;20462;-84
2022/06/17 01:59:47;;;;;;;5.55;3.20;;;17.90;90.30;;;;;;4954890;29;20059;-84
2022/06/17 02:02:15;;;;;;;6.28;3.92;;;18.00;90.40;;;;;;4971001;28;20515;-84
2022/06/17 02:04:48;;;;;;;6.93;3.83;;;17.90;90.50;;;;;;4955146;29;20031;-84
2022/06/17 02:07:24;;;;;;;4.25;2.90;;;17.90;90.80;;;;;;4938919;29;20023;-84
2022/06/17 02:09:53;;;;;;;5.32;3.00;;;17.80;91.00;;;;;;4954625;29;20035;-84
2022/06/17 02:12:20;;;;;;;5.95;3.40;;;17.80;91.30;;;;;;4956124;28;20396;-84
2022/06/17 02:14:54;;;;;;;5.05;3.20;;;17.80;91.60;;;;;;4939693;29;20031;-84
2022/06/17 02:17:42;;;;;;;6.25;3.53;;;17.80;91.70;;;;;;4954764;29;20554;-84
2022/06/17 02:20:23;;;;;;;5.40;2.90;;;17.80;91.70;;;;;;4970985;28;20039;-84
2022/06/17 02:22:51;;;;;;;5.60;2.90;;;17.80;91.60;;;;;;4970993;28;20058;-84
2022/06/17 02:25:22;;;;;;;6.00;3.13;;;17.80;91.60;;;;;;4955949;28;20031;-84
2022/06/17 02:27:54;;;;;;;6.07;2.70;;;17.80;91.80;;;;;;4954874;29;20035;-84
2022/06/17 02:30:24;;;;;;;7.68;3.00;;;17.90;92.00;;;;;;4954804;29;20031;-84
2022/06/17 02:32:53;;;;;;;4.93;2.83;;;17.90;92.20;;;;;;4954686;29;20031;-84
2022/06/17 02:36:12;;;;;;;6.72;3.58;;;17.80;92.00;;;;;;4970545;28;20090;-84
2022/06/17 02:38:39;;;;;;;5.38;3.08;;;17.80;92.10;;;;;;4883214;29;20048;-84
2022/06/17 02:41:19;;;;;;;4.75;3.08;;;17.70;92.30;;;;;;4947205;28;20051;-84
2022/06/17 02:44:00;;;;;;;4.95;3.15;;;17.70;92.40;;;;;;4953929;28;20086;-84
2022/06/17 02:46:36;;;;;;;5.60;3.10;;;17.70;92.60;;;;;;4970054;28;20027;-84
2022/06/17 02:49:07;;;;;;;5.80;3.03;;;17.60;92.90;;;;;;4954117;29;20059;-84
2022/06/17 02:51:37;;;;;;;8.20;3.08;;;17.60;93.10;;;;;;4953929;29;20122;-84
2022/06/17 02:54:05;;;;;;;4.45;2.70;;;17.50;93.30;;;;;;4953784;29;20035;-84
2022/06/17 02:56:34;;;;;;;6.78;3.70;;;17.50;93.30;;;;;;4969768;28;20122;-84
2022/06/17 02:59:18;;;;;;;6.88;3.20;;;17.50;93.30;;;;;;4952592;28;20495;-84
2022/06/17 03:01:51;;;;;;;5.70;3.40;;;17.50;93.40;;;;;;4953580;28;20130;-84
2022/06/17 03:04:32;;;;;;;4.22;2.90;;;17.40;93.40;;;;;;4953739;29;20245;-84
2022/06/17 03:07:01;;;;;;;7.50;3.00;;;17.40;93.60;;;;;;4953700;29;20054;-84
2022/06/17 03:09:32;;;;;;;5.40;3.20;;;17.40;94.00;;;;;;4969565;28;20027;-84
2022/06/17 03:12:01;;;;;;;5.63;2.90;;;17.30;93.90;;;;;;4953457;28;20523;-84
2022/06/17 03:14:31;;;;;;;5.88;3.10;;;17.30;93.80;;;;;;4953853;29;20110;-84
2022/06/17 03:17:01;;;;;;;4.88;3.20;;;17.30;93.70;;;;;;4969695;28;20186;-84
2022/06/17 03:19:29;;;;;;;7.30;3.33;;;17.40;93.70;;;;;;4953637;29;20032;-84
2022/06/17 03:21:56;;;;;;;7.32;3.25;;;17.30;93.50;;;;;;4969481;28;20035;-84
2022/06/17 03:24:44;;;;;;;6.45;3.40;;;17.20;93.50;;;;;;4953331;29;20031;-84
2022/06/17 03:27:19;;;;;;;5.57;3.10;;;17.10;93.60;;;;;;4953397;29;20027;-84
2022/06/17 03:29:48;;;;;;;6.47;2.80;;;17.10;93.60;;;;;;4954496;28;20448;-84
2022/06/17 03:32:23;;;;;;;5.10;2.85;;;17.10;93.70;;;;;;4953291;28;20031;-84
2022/06/17 03:34:53;;;;;;;5.50;2.95;;;17.10;93.70;;;;;;4953088;29;20050;-85
2022/06/17 03:37:32;;;;;;;4.70;2.65;;;17.00;93.70;;;;;;4952945;29;20039;-84
2022/06/17 03:40:17;;;;;;;6.97;2.90;;;17.00;94.00;;;;;;4937527;29;20038;-84
2022/06/17 03:42:59;;;;;;;6.97;3.42;;;17.00;94.40;;;;;;4969118;28;20554;-85
2022/06/17 03:45:52;;;;;;;5.78;3.30;;;16.90;94.60;;;;;;4953020;29;20058;-85
2022/06/17 03:48:39;;;;;;;6.20;3.38;;;16.90;94.60;;;;;;4950142;29;20039;-84
2022/06/17 03:51:08;;;;;;;4.78;3.30;;;16.80;94.60;;;;;;4952923;29;20024;-85
2022/06/17 03:53:36;;;;;;;5.28;3.17;;;16.80;94.70;;;;;;4952730;28;20455;-85
2022/06/17 03:56:07;;;;;;;5.22;3.10;;;16.80;94.80;;;;;;4952764;29;20082;-85
2022/06/17 03:58:38;;;;;;;5.35;3.10;;;16.90;94.90;;;;;;4969066;28;20277;-85
2022/06/17 04:01:14;;;;;;;4.50;2.92;;;16.80;95.00;;;;;;4968818;28;20046;-85
2022/06/17 04:03:45;;;;;;;5.40;2.88;;;16.80;95.10;;;;;;4968838;28;20118;-85
2022/06/17 04:06:20;;;;;;;5.07;3.22;;;16.80;95.10;;;;;;4953861;28;20031;-85
2022/06/17 04:09:06;;;;;;;6.45;3.90;;;16.80;95.40;;;;;;4952737;29;20106;-85
2022/06/17 04:11:37;;;;;;;6.20;3.03;;;16.70;95.10;;;;;;4936995;29;20432;-85
2022/06/17 04:14:06;;;;;;;6.38;3.58;;;16.70;95.00;;;;;;4952755;29;20035;-85
2022/06/17 04:16:40;;;;;;;7.03;4.38;;;16.70;94.90;;;;;;4952554;29;20042;-84
2022/06/17 04:19:18;;;;;;;6.50;3.85;;;16.70;94.80;;;;;;4968544;28;20045;-84
2022/06/17 04:21:56;;;;;;;5.53;3.65;;;16.70;94.60;;;;;;4952422;28;20109;-85
2022/06/17 04:24:27;;;;;;;5.80;3.35;;;16.70;94.50;;;;;;4952687;29;20062;-85
2022/06/17 04:27:03;;;;;;;8.07;3.40;;;16.70;94.60;;;;;;4952523;29;20027;-85
2022/06/17 04:29:42;;;;;;;6.00;3.35;;;16.80;94.60;;;;;;4952322;29;20034;-85
2022/06/17 04:32:18;;;;;;;7.75;3.60;;;16.80;94.50;;;;;;4952523;28;20031;-84
2022/06/17 04:34:44;;;;;;;5.20;3.40;;;16.80;94.40;;;;;;4968506;28;20074;-84
2022/06/17 04:37:20;;;;;;;5.35;3.30;;;16.80;94.30;;;;;;4952140;29;20054;-85
2022/06/17 04:40:07;;;;;;;6.10;3.35;;;16.80;94.20;;;;;;4953530;29;20133;-85
2022/06/17 04:42:45;;;;;;;6.47;3.28;;;16.90;94.10;;;;;;4952453;28;20503;-85
2022/06/17 04:45:26;;;;;;;7.57;3.83;;;16.90;93.90;;;;;;4968492;28;20027;-85
2022/06/17 04:47:58;;;;;;;5.65;3.20;;;16.90;93.80;;;;;;4952315;29;20479;-85
2022/06/17 04:50:28;;;;;;;8.37;3.10;;;16.90;93.60;;;;;;4952104;29;20035;-85
2022/06/17 04:52:55;;;;;;;6.47;3.13;;;17.00;93.50;;;;;;4953459;28;20117;-84
2022/06/17 04:55:38;;;;;;;6.10;3.40;;;17.10;93.40;;;;;;4952600;29;20047;-84
2022/06/17 04:58:15;;;;;;;5.47;2.92;;;17.10;93.40;;;;;;4953295;29;20604;-85
2022/06/17 05:00:48;;;;;;;6.68;3.17;;;17.10;93.40;;;;;;4968011;28;20093;-85
2022/06/17 05:03:16;;;;;;;6.80;3.15;;;17.20;93.30;;;;;;4952016;28;20031;-84
2022/06/17 05:05:48;;;;;;;4.75;2.95;;;17.20;93.20;;;;;;4951816;29;20158;-83
2022/06/17 05:08:30;;;;;;;7.00;3.38;;;17.30;93.10;;;;;;4952079;29;20547;-85
2022/06/17 05:11:05;;;;;;;6.90;3.30;;;17.40;92.90;;;;;;4952158;29;20483;-85
2022/06/17 05:13:40;;;;;;;5.00;2.92;;;17.50;92.90;;;;;;4953070;28;20031;-85
2022/06/17 05:16:12;;;;;;;4.82;2.60;;;17.50;92.80;;;;;;4967813;28;20063;-85
2022/06/17 05:18:39;;;;;;;4.93;2.67;;;17.70;92.40;;;;;;4951812;29;20027;-85
2022/06/17 05:21:18;;;;;;;5.50;2.53;;;17.80;91.90;;;;;;4936365;29;20063;-85
2022/06/17 05:23:48;;;;;;;4.38;2.50;;;17.90;91.80;;;;;;4955865;28;20031;-85
2022/06/17 05:26:14;;;;;;;5.35;2.50;;;17.90;91.90;;;;;;4955754;29;20361;-85
2022/06/17 05:28:41;;;;;;;4.45;2.50;;;18.00;91.80;;;;;;4955713;29;20059;-85
2022/06/17 05:31:13;;;;;;;7.65;2.53;;;18.10;91.30;;;;;;4971958;28;20474;-85
2022/06/17 05:33:45;;;;;;;5.50;2.85;;;18.20;91.20;;;;;;4955759;29;20034;-83
2022/06/17 05:36:12;;;;;;;5.15;2.53;;;18.20;91.10;;;;;;4955614;29;20032;-85
2022/06/17 05:38:38;;;;;;;11.18;3.35;;;18.30;91.20;;;;;;4955589;29;20536;-84
2022/06/17 05:41:06;;;;;;;11.05;4.03;;;18.40;91.10;;;;;;4955558;29;20396;-84
2022/06/17 05:43:33;;;;;;;14.13;4.47;;;18.40;91.10;;;;;;4971641;28;20394;-85
2022/06/17 05:46:02;;;;;;;9.75;2.95;;;18.50;91.20;;;;;;4955349;29;20028;-85
2022/06/17 05:48:44;;;;;;;6.15;3.03;;;18.50;91.10;;;;;;4971534;28;20027;-85
2022/06/17 05:51:28;;;;;;;4.95;3.22;;;18.60;91.00;;;;;;4955832;29;20110;-85
2022/06/17 05:54:23;;;;;;;4.00;2.22;;;18.70;91.00;;;;;;4904091;28;20037;-85
2022/06/17 05:57:08;;;;;;;9.82;2.80;;;18.80;90.80;;;;;;4955405;29;20123;-85
2022/06/17 05:59:33;;;;;;;10.10;2.70;;;18.80;90.80;;;;;;4971526;28;20093;-85
2022/06/17 06:01:59;;;;;;;11.48;3.20;;;18.80;90.80;;;;;;4955247;28;20399;-85
2022/06/17 06:04:44;;;;;;;7.93;2.42;;;18.90;90.70;;;;;;4955372;29;20078;-85
2022/06/17 06:07:11;;;;;;;10.23;2.65;;;18.90;90.60;;;;;;4954499;29;20145;-85
2022/06/17 06:09:38;;;;;;;7.32;2.50;;;18.90;90.60;;;;;;4955323;29;20496;-85
2022/06/17 06:12:05;;;;;;;6.25;2.63;;;19.00;90.80;;;;;;4955292;28;20035;-85
2022/06/17 06:14:31;;;;;;;5.82;2.45;;;18.90;90.80;;;;;;4939304;29;20059;-85
2022/06/17 06:16:58;;;;;;;5.13;2.00;;;19.00;90.90;;;;;;4955034;29;20035;-85
2022/06/17 06:19:26;;;;;;;5.68;2.60;;;19.00;91.00;;;;;;4954976;29;20031;-84
2022/06/17 06:21:53;;;;;;;5.18;2.25;;;19.00;91.20;;;;;;4954787;28;20066;-85
2022/06/17 06:24:19;;;;;;;7.10;2.88;;;19.00;91.30;;;;;;4955147;29;20062;-84
2022/06/17 06:26:44;;;;;;;5.72;2.53;;;19.00;91.50;;;;;;4971114;28;20613;-85
2022/06/17 06:29:31;;;;;;;4.60;2.50;;;19.00;91.60;;;;;;4954808;29;20119;-84
2022/06/17 06:31:57;;;;;;;6.43;2.40;;;19.00;91.80;;;;;;4954769;28;20474;-84
2022/06/17 06:34:51;;;;;;;8.38;2.47;;;19.00;91.80;;;;;;4932818;29;20063;-84
2022/06/17 06:37:17;;;;;;;6.30;2.58;;;18.90;91.90;;;;;;4954571;29;20037;-84
2022/06/17 06:39:44;;;;;;;5.78;2.28;;;19.00;92.00;;;;;;4970679;28;20090;-84
2022/06/17 06:42:10;;;;;;;4.57;2.28;;;19.00;92.30;;;;;;4970731;28;20027;-86
2022/06/17 06:44:49;;;;;;;9.38;3.03;;;19.00;92.20;;;;;;4957191;28;20027;-84
2022/06/17 06:47:24;;;;;;;6.57;2.40;;;19.10;92.10;;;;;;4955617;29;20039;-85
2022/06/17 06:49:58;;;;;;;5.75;2.10;;;19.10;91.70;;;;;;4972338;28;20028;-85
2022/06/17 06:52:25;;;;;;;6.97;3.00;;;19.20;91.30;;;;;;4988161;23;20046;-87
2022/06/17 06:54:52;;;;;;;4.65;2.40;;;19.30;91.10;;;;;;4973412;28;20066;-87
2022/06/17 06:57:19;;;;;;;4.55;2.50;;;19.30;90.90;;;;;;4973878;28;20462;-87
2022/06/17 06:59:48;;;;;;;4.70;2.20;;;19.40;90.70;;;;;;4973275;28;20479;-87
2022/06/17 07:02:14;;;;;;;;;;;19.50;90.40;;;;;;4973693;28;20543;-87
2022/06/17 07:04:40;;;;;;;4.25;2.45;;;19.60;90.20;;;;;;4973352;28;19917;-87
2022/06/17 07:07:08;;;;;;;7.93;3.20;;;19.60;90.20;;;;;;4972934;28;20081;-87
2022/06/17 07:09:34;;;;;;;4.82;2.03;;;19.70;90.00;;;;;;4974251;28;20034;-87
2022/06/17 07:12:00;;;;;;;4.00;2.05;;;19.70;89.60;;;;;;4974426;28;20042;-87
2022/06/17 07:14:26;;;;;;;3.00;1.90;;;19.80;89.10;;;;;;4974537;28;20034;-87
2022/06/17 07:16:52;;;;;;;8.52;2.50;;;19.80;89.30;;;;;;4974254;28;20042;-87
2022/06/17 07:19:19;;;;;;;4.10;1.90;;;19.90;88.70;;;;;;4972945;28;20026;-87
2022/06/17 07:21:48;;;;;;;7.95;2.55;;;20.00;88.70;;;;;;4972949;28;20026;-87
2022/06/17 07:24:15;;;;;;;7.13;2.30;;;20.00;88.70;;;;;;4974205;28;20376;-87
2022/06/17 07:26:41;;;;;;;4.57;2.53;;;20.10;88.30;;;;;;4972848;28;20479;-87
2022/06/17 07:29:08;;;;;;;5.13;2.30;;;20.10;88.20;;;;;;4974252;28;20033;-87
2022/06/17 07:31:34;;;;;;;4.75;2.75;;;20.20;87.90;;;;;;4956628;28;20405;-87
2022/06/17 07:34:02;;;;;;;6.20;3.13;;;20.20;87.90;;;;;;4974076;28;20022;-86
2022/06/17 07:42:01;;;;;;;6.13;2.38;;;20.40;86.30;;;;;;4973845;28;20169;-87
2022/06/17 07:44:27;;;;;;;9.90;2.38;;;20.40;84.90;;;;;;4972143;28;20031;-87
2022/06/17 07:46:52;;;;;;;5.40;2.33;;;20.40;84.70;;;;;;4973561;28;20471;-87
2022/06/17 07:49:18;;;;;;;4.32;2.10;;;20.50;83.70;;;;;;4972379;28;20066;-87
2022/06/17 07:51:44;;;;;;;4.70;1.90;;;20.60;83.80;;;;;;4973661;28;20030;-87
2022/06/17 07:54:10;;;;;;;6.65;1.85;;;20.70;83.40;;;;;;4973416;28;20034;-87
2022/06/17 07:56:36;;;;;;;3.13;1.67;;;20.70;83.40;;;;;;4973468;28;20093;-87
2022/06/17 07:59:02;;;;;;;3.78;1.75;;;20.80;83.40;;;;;;4972031;28;20487;-87
2022/06/17 08:01:28;;;;;;;4.88;1.83;;;20.90;82.60;;;;;;4971910;28;20085;-87
2022/06/17 08:03:54;;;;;;;6.40;2.45;;;20.90;82.30;;;;;;4971913;28;20035;-87
2022/06/17 08:06:20;;;;;;;5.32;1.90;;;21.00;83.10;;;;;;4973189;28;20030;-87
2022/06/17 08:08:48;;;;;;;3.65;1.70;;;21.00;82.10;;;;;;4973251;28;20475;-87
2022/06/17 08:11:14;;;;;;;4.97;1.95;;;21.00;82.20;;;;;;4971996;28;20027;-87
2022/06/17 08:13:40;;;;;;;3.03;1.70;;;21.00;82.10;;;;;;4971789;28;20081;-87
2022/06/17 08:16:08;;;;;;;6.35;2.20;;;21.00;82.20;;;;;;4971526;28;20401;-87
2022/06/17 08:18:36;;;;;;;9.02;2.00;;;21.00;83.00;;;;;;4973115;28;20035;-88
2022/06/17 08:21:03;;;;;;;5.35;2.42;;;21.10;82.10;;;;;;4971661;28;20184;-88
2022/06/17 08:23:29;;;;;;;7.15;2.45;;;21.10;82.50;;;;;;4971617;28;20501;-87
2022/06/17 08:25:57;;;;;;;13.50;4.15;;;21.20;82.10;;;;;;4971443;28;20027;-87
2022/06/17 08:28:24;;;;;;;19.52;4.00;;;21.30;82.10;;;;;;4972845;28;20035;-88
2022/06/17 08:30:52;;;;;;;9.85;2.65;;;21.30;82.00;;;;;;4972530;28;20187;-87
2022/06/17 08:33:27;;;;;;;8.45;2.40;;;21.40;81.20;;;;;;4972616;28;20399;-87
2022/06/17 08:35:56;;;;;;;5.63;2.13;;;21.40;80.70;;;;;;4972537;28;20045;-87
2022/06/17 08:38:29;;;;;;;4.22;2.00;;;21.40;81.20;;;;;;4972486;28;20392;-87
2022/06/17 08:41:11;;;;;;;5.75;2.03;;;21.40;81.00;;;;;;4972398;28;20506;-87
2022/06/17 08:44:09;;;;;;;4.57;1.60;;;21.40;80.40;;;;;;4972474;28;20054;-87
2022/06/17 08:46:54;;;;;;;5.60;1.80;;;21.40;80.70;;;;;;4949763;28;20042;-86
2022/06/17 08:49:23;;;;;;;3.17;1.50;;;21.50;80.70;;;;;;4970981;28;20030;-87
2022/06/17 08:52:06;;;;;;;2.95;1.70;;;21.50;80.80;;;;;;4971200;28;20027;-87
2022/06/17 08:55:01;;;;;;;10.32;2.78;;;21.60;80.70;;;;;;4972243;28;20042;-87
2022/06/17 08:57:39;;;;;;;4.43;1.90;;;21.60;79.90;;;;;;4971309;28;20399;-87
2022/06/17 09:00:08;;;;;;;6.15;1.95;;;21.70;78.70;;;;;;4971048;28;20199;-88
2022/06/17 09:02:55;;;;;;;4.15;1.92;;;21.60;79.20;;;;;;4971064;28;20035;-87
2022/06/17 09:05:27;;;;;;;3.20;1.83;;;21.60;78.40;;;;;;4972481;28;20314;-87
2022/06/17 09:08:10;;;;;;;3.58;1.98;;;21.60;78.80;;;;;;4970826;28;20031;-87
2022/06/17 09:10:53;;;;;;;3.65;1.85;;;21.60;78.30;;;;;;4970962;28;20446;-87
2022/06/17 09:13:46;;;;;;;6.05;1.80;;;21.70;78.00;;;;;;4970899;28;20029;-87
2022/06/17 09:16:18;;;;;;;5.05;2.20;;;21.70;78.60;;;;;;4970670;28;20488;-87
2022/06/17 09:18:49;;;;;;;5.07;2.17;;;21.90;78.90;;;;;;4971897;28;20040;-87
2022/06/17 09:21:30;;;;;;;6.32;2.00;;;21.90;78.00;;;;;;4972402;28;20045;-87
2022/06/17 09:24:04;;;;;;;8.32;2.20;;;22.00;77.20;;;;;;4971984;28;20034;-87
2022/06/17 09:26:35;;;;;;;3.95;1.70;;;22.00;77.40;;;;;;4971878;28;20050;-87
2022/06/17 09:29:27;;;;;;;3.67;1.70;;;22.10;77.00;;;;;;4971719;28;20035;-87
2022/06/17 09:32:03;;;;;;;3.88;1.70;;;22.10;77.30;;;;;;4970748;28;20372;-87
2022/06/17 09:34:51;;;;;;;4.22;1.83;;;22.10;77.10;;;;;;4972082;28;20476;-87
2022/06/17 09:37:34;;;;;;;5.93;2.05;;;22.10;77.50;;;;;;4971598;28;20502;-87
2022/06/17 09:40:05;;;;;;;4.00;1.85;;;22.10;76.90;;;;;;4970328;28;20034;-87
2022/06/17 09:42:40;;;;;;;3.90;1.70;;;22.10;77.40;;;;;;4970419;28;20039;-87
2022/06/17 09:45:25;;;;;;;3.72;1.80;;;22.10;77.20;;;;;;4971842;28;20030;-87
2022/06/17 09:48:03;;;;;;;3.67;1.73;;;22.10;77.00;;;;;;4970658;28;20039;-87
2022/06/17 09:50:58;;;;;;;4.75;1.85;;;22.10;77.20;;;;;;4971585;28;20468;-87
2022/06/17 09:53:27;;;;;;;3.58;1.75;;;22.10;77.60;;;;;;4966980;28;20423;-87
2022/06/17 09:56:02;;;;;;;4.20;1.90;;;22.10;77.80;;;;;;4971476;28;20023;-87
2022/06/17 09:58:40;;;;;;;9.45;2.08;;;22.10;77.80;;;;;;4970482;28;20046;-87
2022/06/17 10:01:08;;;;;;;5.55;1.92;;;22.10;76.50;;;;;;4971622;28;20109;-87
2022/06/17 10:03:35;;;;;;;8.40;2.53;;;22.10;76.60;;;;;;4971545;28;20030;-87
2022/06/17 10:06:04;;;;;;;10.97;2.20;;;22.10;76.50;;;;;;4954091;28;20510;-87
2022/06/17 10:09:07;;;;;;;4.25;1.90;;;22.10;76.70;;;;;;4973155;28;20042;-87
2022/06/17 10:11:43;;;;;;;4.45;1.83;;;22.10;76.60;;;;;;4975398;28;20027;-87
2022/06/17 10:14:17;;;;;;;3.78;1.60;;;22.20;76.50;;;;;;4975112;28;20169;-87
2022/06/17 10:20:25;;;;;;;2.25;1.50;;;22.30;76.00;;;;;;4973597;28;20422;-87
2022/06/17 10:23:16;;;;;;;3.42;1.50;;;22.30;76.20;;;;;;4973494;28;20058;-87
2022/06/17 10:26:23;;;;;;;3.85;2.00;;;22.20;75.30;;;;;;4975067;28;20027;-87
2022/06/17 10:29:13;;;;;;;3.97;1.60;;;22.30;75.50;;;;;;4975283;28;20019;-87
2022/06/17 10:31:46;;;;;;;6.03;1.90;;;22.30;75.20;;;;;;4973829;28;20030;-87
2022/06/17 10:34:38;;;;;;;3.72;1.80;;;22.30;75.00;;;;;;4973782;28;20239;-87
2022/06/17 10:37:06;;;;;;;3.80;1.50;;;22.40;73.90;;;;;;4972552;28;20126;-87
2022/06/17 10:39:34;;;;;;;3.13;1.75;;;22.40;74.30;;;;;;4957253;28;20038;-87
2022/06/17 10:42:01;;;;;;;3.95;1.85;;;22.40;74.00;;;;;;4974785;28;20035;-87
2022/06/17 10:44:28;;;;;;;4.18;1.80;;;22.50;74.00;;;;;;4973419;28;20031;-87
2022/06/17 10:47:24;;;;;;;5.30;1.83;;;22.40;74.50;;;;;;4974442;28;20023;-87
2022/06/17 10:50:19;;;;;;;3.67;1.77;;;22.40;75.40;;;;;;4973187;28;20031;-87
2022/06/17 10:53:24;;;;;;;4.93;1.98;;;22.40;74.00;;;;;;4970146;28;20134;-87
2022/06/17 10:55:55;;;;;;;3.95;1.48;;;22.60;71.10;;;;;;4964591;28;20137;-86
2022/06/17 10:58:27;;;;;;;3.78;1.40;;;22.70;70.50;;;;;;4974187;28;20039;-87
2022/06/17 11:01:06;;;;;;;3.80;1.75;;;22.80;70.80;;;;;;4974678;28;20041;-87
2022/06/17 11:03:32;;;;;;;3.75;2.05;;;23.00;72.00;;;;;;4974476;28;20043;-87
2022/06/17 11:06:04;;;;;;;3.70;1.85;;;23.00;71.00;;;;;;4974155;28;20491;-86
2022/06/17 11:08:50;;;;;;;5.07;2.00;;;23.00;71.50;;;;;;4974162;28;20027;-87
2022/06/17 11:14:23;;;;;;;5.35;1.98;;;23.10;70.50;;;;;;4972860;28;20037;-87
2022/06/17 11:16:49;;;;;;;6.55;1.90;;;23.20;70.50;;;;;;4972917;28;20035;-87
2022/06/17 11:19:20;;;;;;;3.47;1.40;;;23.30;69.90;;;;;;4971947;28;20117;-87
2022/06/17 11:21:50;;;;;;;6.72;2.78;;;23.40;68.50;;;;;;4974332;28;20402;-87
2022/06/17 11:24:28;;;;;;;5.00;1.60;;;23.60;68.00;;;;;;4973990;28;20145;-87
2022/06/17 11:27:15;;;;;;;4.15;1.88;;;23.60;67.40;;;;;;4973729;28;20039;-87
2022/06/17 11:29:48;;;;;;;3.95;1.83;;;23.80;68.00;;;;;;4956211;28;20038;-87
2022/06/17 11:32:20;;;;;;;6.75;2.25;;;23.80;67.90;;;;;;4973681;28;20031;-87
2022/06/17 11:34:53;;;;;;;4.28;1.90;;;23.80;68.70;;;;;;4972319;28;20109;-87
2022/06/17 11:37:23;;;;;;;4.63;2.05;;;23.80;69.20;;;;;;4972268;28;20515;-87
2022/06/17 11:40:16;;;;;;;3.85;1.80;;;23.90;68.00;;;;;;4973838;28;20034;-87
2022/06/17 11:42:52;;;;;;;3.55;1.88;;;23.90;68.30;;;;;;4973338;28;20474;-87
2022/06/17 11:45:33;;;;;;;5.22;2.03;;;24.00;66.40;;;;;;4973562;28;20034;-87
2022/06/17 11:48:04;;;;;;;3.70;1.40;;;24.00;65.80;;;;;;4973314;28;20023;-87
2022/06/17 11:50:37;;;;;;;5.25;2.08;;;24.00;65.80;;;;;;4972946;28;20033;-87
2022/06/17 11:53:21;;;;;;;5.72;2.53;;;24.10;65.80;;;;;;4973200;28;20034;-87
2022/06/17 11:55:49;;;;;;;6.40;1.98;;;24.00;66.30;;;;;;4973073;28;20069;-87
2022/06/17 11:58:17;;;;;;;3.75;2.25;;;24.10;66.50;;;;;;4972070;28;20035;-87
2022/06/17 12:00:52;;;;;;;4.95;1.60;;;24.10;67.50;;;;;;4973472;28;20050;-87
2022/06/17 12:03:30;;;;;;;3.63;1.92;;;24.10;65.90;;;;;;4971727;28;20113;-87
2022/06/17 12:05:59;;;;;;;4.20;1.95;;;24.10;66.70;;;;;;4971649;28;20471;-87
2022/06/17 12:08:57;;;;;;;5.18;2.55;;;24.00;67.20;;;;;;4971857;28;20026;-87
2022/06/17 12:11:51;;;;;;;3.80;2.22;;;24.00;68.00;;;;;;4958698;28;20043;-86
2022/06/17 12:14:27;;;;;;;5.95;2.13;;;24.10;67.60;;;;;;4971668;28;20034;-87
2022/06/17 12:16:54;;;;;;;3.92;2.00;;;24.30;66.10;;;;;;4972976;28;20038;-87
2022/06/17 12:19:21;;;;;;;3.65;1.80;;;24.40;66.60;;;;;;4971609;28;20042;-87
2022/06/17 12:21:53;;;;;;;3.03;1.50;;;24.50;64.60;;;;;;4972586;28;20368;-87
2022/06/17 12:24:31;;;;;;;3.65;1.60;;;24.60;65.90;;;;;;4972591;28;20446;-87
2022/06/17 12:27:18;;;;;;;3.90;1.90;;;24.70;65.40;;;;;;4971388;28;20034;-87
2022/06/17 12:30:01;;;;;;;5.93;2.28;;;24.80;66.00;;;;;;4972482;28;20031;-87
2022/06/17 12:32:51;;;;;;;3.85;2.30;;;24.90;66.00;;;;;;4972378;28;20026;-87
2022/06/17 12:35:27;;;;;;;8.23;2.95;;;25.10;65.40;;;;;;4972601;28;20085;-87
2022/06/17 12:38:11;;;;;;;4.95;2.50;;;25.30;64.70;;;;;;4971114;28;20121;-88
2022/06/17 12:41:10;;;;;;;5.38;2.42;;;25.50;63.80;;;;;;4970977;28;20026;-88
2022/06/17 12:44:00;;;;;;;5.45;2.78;;;25.70;63.00;;;;;;4972381;28;20031;-87
2022/06/17 12:46:42;;;;;;;5.15;2.30;;;25.80;62.70;;;;;;4972300;28;20018;-87
2022/06/17 12:53:15;;;;;;;7.07;2.35;;;26.10;61.50;;;;;;4971043;28;20061;-87
2022/06/17 12:56:05;;;;;;;4.13;2.20;;;26.20;61.40;;;;;;4972110;28;20042;-87
2022/06/17 12:58:48;;;;;;;3.97;1.80;;;26.30;60.60;;;;;;4970963;28;20035;-87
2022/06/17 13:01:24;;;;;;;3.65;2.15;;;26.30;60.80;;;;;;4971029;28;20030;-87
2022/06/17 13:04:24;;;;;;;5.05;2.67;;;26.40;61.10;;;;;;4970895;28;20563;-87
2022/06/17 13:07:05;;;;;;;5.07;2.03;;;26.30;61.10;;;;;;4972089;28;20035;-87
2022/06/17 13:09:34;;;;;;;4.07;1.80;;;26.30;61.40;;;;;;4972437;28;20023;-88
2022/06/17 13:12:23;;;;;;;;;;;26.30;59.50;;;;;;4972512;28;20060;-88
2022/06/17 13:14:57;;;;;;;2.78;1.40;;;26.30;59.10;;;;;;4970983;28;19968;-88
2022/06/17 13:17:39;;;;;;;2.67;1.40;;;26.30;59.70;;;;;;4971874;28;20114;-87
2022/06/17 13:20:26;;;;;;;4.28;1.65;;;26.20;60.60;;;;;;4971802;28;20110;-87
2022/06/17 13:22:55;;;;;;;4.25;1.40;;;26.10;60.70;;;;;;4971901;28;20070;-88
2022/06/17 13:25:34;;;;;;;4.72;1.58;;;26.00;60.50;;;;;;4972213;28;20058;-87
2022/06/17 13:28:20;;;;;;;3.13;1.35;;;26.00;60.70;;;;;;4971954;28;20106;-87
2022/06/17 13:30:54;;;;;;;4.00;1.95;;;26.00;59.70;;;;;;4972125;28;20054;-88
2022/06/17 13:33:28;;;;;;;4.95;1.92;;;26.00;60.90;;;;;;4971973;28;20488;-88
2022/06/17 13:36:12;;;;;;;4.85;2.05;;;25.90;61.10;;;;;;4971898;28;20030;-87
2022/06/17 13:38:49;;;;;;;3.63;1.80;;;26.00;61.60;;;;;;4971720;28;20034;-87
2022/06/17 13:41:30;;;;;;;2.75;1.52;;;25.90;61.80;;;;;;4971785;28;20179;-88
2022/06/17 13:44:37;;;;;;;3.45;1.70;;;26.00;60.90;;;;;;4973127;28;20026;-87
2022/06/17 13:47:21;;;;;;;3.78;1.70;;;26.00;61.40;;;;;;4975446;28;20042;-88